Finksburg, Maryland
Current Conditions -  °F | °C
As of 10:10 AM on Friday 19 Dec 2014 (Local Time) from KDMW Reporting Station
Overcast Overcast  
Wind Chill: 25°   Ceiling: 2800
Heat Index: 34°   Visibility: 10mi
Dew Point: 25°   Wind: 12mph
Humidity: 70%   Direction: 300°WNW
Pressure: 30.12"   Gusts: 17mph
Location:  39.49°N, 76.89°W
Report Text: KDMW 191510Z AUTO 30010G15KT 10SM OVC028 01/M04 A3012 RMK AO2
Loading
Personal Weather Stations






























Interactive Weather Map New forecast layout! Learn more

10-Day Weather Forecast

Advertisements
Track Severe Weather on mobile